Time;durP1;ratioP1;P1;durP2;ratioP2;P2;SDS_P1;SDS_P2;PMS_P1;PMS_P2;Temp;Humidity;BMP_temperature;BMP_pressure;BME280_temperature;BME280_humidity;BME280_pressure;Samples;Min_cycle;Max_cycle;Signal;HPM_P1;HPM_P2
2023/10/13 00:03:02;;;;;;;2.25;1.67;;;;;;;;;;6175988;28;20522;-87
2023/10/13 00:06:02;;;;;;;2.72;1.77;;;;;;;;;;6176615;28;20454;-86
2023/10/13 00:09:04;;;;;;;2.75;1.75;;;;;;;;;;6175821;28;20037;-86
2023/10/13 00:12:08;;;;;;;2.55;1.75;;;;;;;;;;6165936;28;20038;-86
2023/10/13 00:15:13;;;;;;;2.55;1.73;;;;;;;;;;6169851;28;20058;-87
2023/10/13 00:18:14;;;;;;;1.73;1.52;;;;;;;;;;6173591;28;20035;-87
2023/10/13 00:21:19;;;;;;;2.00;1.55;;;;;;;;;;6171529;28;20475;-87
2023/10/13 00:24:23;;;;;;;2.45;1.38;;;;;;;;;;6172022;28;20125;-87
2023/10/13 00:27:29;;;;;;;3.75;1.80;;;;;;;;;;6177852;28;20138;-87
2023/10/13 00:30:36;;;;;;;1.98;1.70;;;;;;;;;;6156231;28;20030;-87
2023/10/13 00:33:37;;;;;;;2.83;1.55;;;;;;;;;;6173243;28;20022;-87
2023/10/13 00:36:48;;;;;;;2.90;1.63;;;;;;;;;;6160694;28;20475;-87
2023/10/13 00:39:55;;;;;;;3.55;1.80;;;;;;;;;;6178489;28;20470;-87
2023/10/13 00:43:45;;;;;;;4.10;1.70;;;;;;;;;;6178581;28;20464;-88
2023/10/13 00:46:20;;;;;;;3.90;1.65;;;;;;;;;;6163997;28;20442;-88
2023/10/13 00:49:20;;;;;;;2.20;1.55;;;;;;;;;;6174607;28;20039;-87
2023/10/13 00:52:22;;;;;;;2.33;1.83;;;;;;;;;;6171860;28;20084;-87
2023/10/13 00:55:22;;;;;;;2.28;1.65;;;;;;;;;;6161038;28;20546;-83
2023/10/13 00:58:22;;;;;;;;;;;;;;;;;;6174579;28;20487;-84
2023/10/13 01:01:29;;;;;;;2.03;1.30;;;;;;;;;;6183578;28;20290;-84
2023/10/13 01:04:31;;;;;;;2.47;1.42;;;;;;;;;;6172531;28;20556;-84
2023/10/13 01:07:32;;;;;;;2.45;1.42;;;;;;;;;;6160053;28;20033;-82
2023/10/13 01:10:32;;;;;;;2.63;1.40;;;;;;;;;;6173036;28;20065;-84
2023/10/13 01:13:36;;;;;;;3.60;1.87;;;;;;;;;;6172410;28;20031;-84
2023/10/13 01:16:39;;;;;;;3.97;1.77;;;;;;;;;;6178599;28;20366;-83
2023/10/13 01:19:42;;;;;;;3.40;1.67;;;;;;;;;;6155368;28;20352;-82
2023/10/13 01:22:43;;;;;;;2.05;1.80;;;;;;;;;;6177156;28;20074;-83
2023/10/13 01:25:43;;;;;;;3.10;1.70;;;;;;;;;;6160873;28;20042;-83
2023/10/13 01:28:48;;;;;;;;;;;;;;;;;;6160471;28;20068;-83
2023/10/13 01:31:48;;;;;;;4.00;1.48;;;;;;;;;;6175419;28;19910;-83
2023/10/13 01:34:49;;;;;;;1.97;1.37;;;;;;;;;;6174196;28;20506;-83
2023/10/13 01:37:50;;;;;;;2.40;1.80;;;;;;;;;;6172757;28;20030;-83
2023/10/13 01:40:51;;;;;;;1.97;1.50;;;;;;;;;;6176004;28;20038;-83
2023/10/13 01:43:52;;;;;;;2.40;1.63;;;;;;;;;;6175028;28;20030;-84
2023/10/13 01:46:52;;;;;;;3.47;1.70;;;;;;;;;;6176929;28;20035;-83
2023/10/13 01:49:52;;;;;;;2.93;2.10;;;;;;;;;;6158983;28;20035;-84
2023/10/13 01:52:59;;;;;;;;;;;;;;;;;;6164772;28;20034;-82
2023/10/13 01:56:05;;;;;;;1.83;1.33;;;;;;;;;;6178196;28;19914;-83
2023/10/13 01:59:05;;;;;;;1.67;1.52;;;;;;;;;;6174624;28;20018;-83
2023/10/13 02:02:06;;;;;;;2.50;1.50;;;;;;;;;;6179036;28;20038;-83
2023/10/13 02:05:07;;;;;;;2.75;1.80;;;;;;;;;;6176294;28;20018;-87
2023/10/13 02:08:07;;;;;;;4.25;1.70;;;;;;;;;;6178733;28;20483;-87
2023/10/13 02:11:07;;;;;;;;;;;;;;;;;;6166767;28;20091;-87
2023/10/13 02:14:11;;;;;;;1.70;1.40;;;;;;;;;;6181125;28;19914;-88
2023/10/13 02:17:12;;;;;;;2.60;1.80;;;;;;;;;;6158956;28;20050;-88
2023/10/13 02:20:15;;;;;;;3.83;2.20;;;;;;;;;;6178734;28;20054;-87
2023/10/13 02:23:15;;;;;;;2.85;1.50;;;;;;;;;;6175232;28;20134;-88
2023/10/13 02:26:29;;;;;;;3.07;1.63;;;;;;;;;;6182182;28;20084;-88
2023/10/13 02:29:30;;;;;;;2.20;1.70;;;;;;;;;;6176103;28;20035;-87
2023/10/13 02:32:30;;;;;;;4.47;1.63;;;;;;;;;;6177543;28;20061;-87
2023/10/13 02:35:41;;;;;;;2.10;1.80;;;;;;;;;;6165940;28;20030;-88
2023/10/13 02:38:47;;;;;;;2.55;1.60;;;;;;;;;;6182644;28;20034;-87
2023/10/13 02:41:48;;;;;;;2.33;1.65;;;;;;;;;;6176439;28;20475;-88
2023/10/13 02:44:48;;;;;;;3.47;2.00;;;;;;;;;;6179918;28;20042;-88
2023/10/13 02:48:10;;;;;;;;;;;;;;;;;;6174450;28;20497;-87
2023/10/13 02:51:15;;;;;;;2.60;1.02;;;;;;;;;;6176062;28;19991;-87
2023/10/13 02:54:18;;;;;;;4.05;1.60;;;;;;;;;;6176926;28;20482;-88
2023/10/13 02:57:18;;;;;;;2.50;1.58;;;;;;;;;;6178861;28;20076;-87
2023/10/13 03:00:22;;;;;;;3.07;1.77;;;;;;;;;;6179153;28;20472;-87
2023/10/13 03:03:23;;;;;;;2.95;1.60;;;;;;;;;;6180968;28;20070;-89
2023/10/13 03:06:24;;;;;;;2.47;1.57;;;;;;;;;;6178414;28;20087;-88
2023/10/13 03:09:24;;;;;;;2.47;1.70;;;;;;;;;;6177399;28;20054;-88
2023/10/13 03:12:24;;;;;;;2.30;1.60;;;;;;;;;;6163434;28;20041;-87
2023/10/13 03:15:30;;;;;;;1.93;1.40;;;;;;;;;;6177271;28;20034;-87
2023/10/13 03:18:34;;;;;;;6.00;1.80;;;;;;;;;;6180173;28;20051;-88
2023/10/13 03:21:36;;;;;;;2.65;1.70;;;;;;;;;;6176986;28;20135;-88
2023/10/13 03:24:41;;;;;;;3.47;1.70;;;;;;;;;;6176540;28;20033;-87
2023/10/13 03:30:52;;;;;;;2.10;1.85;;;;;;;;;;6194083;28;20032;-88
2023/10/13 03:33:59;;;;;;;2.78;1.88;;;;;;;;;;6185476;28;20459;-87
2023/10/13 03:36:59;;;;;;;1.73;1.52;;;;;;;;;;6154980;28;20092;-88
2023/10/13 03:39:59;;;;;;;2.10;1.73;;;;;;;;;;6190685;28;20154;-87
2023/10/13 03:43:10;;;;;;;;;;;;;;;;;;6167636;28;20467;-87
2023/10/13 03:46:10;;;;;;;2.83;1.58;;;;;;;;;;6179646;28;20259;-88
2023/10/13 03:49:12;;;;;;;2.60;1.60;;;;;;;;;;6180294;28;20035;-87
2023/10/13 03:52:13;;;;;;;1.92;1.50;;;;;;;;;;6178405;28;20038;-88
2023/10/13 03:55:17;;;;;;;2.40;1.65;;;;;;;;;;6159138;28;20038;-88
2023/10/13 03:58:17;;;;;;;2.75;1.55;;;;;;;;;;6164352;28;20038;-88
2023/10/13 04:01:18;;;;;;;2.07;1.40;;;;;;;;;;6179188;28;20399;-87
2023/10/13 04:08:03;;;;;;;1.73;1.27;;;;;;;;;;6180697;28;19910;-88
2023/10/13 04:14:23;;;;;;;3.47;1.70;;;;;;;;;;6175868;28;20483;-88
2023/10/13 04:17:25;;;;;;;3.65;1.85;;;;;;;;;;6170900;28;20084;-86
2023/10/13 04:20:32;;;;;;;2.33;1.58;;;;;;;;;;6173753;28;20037;-87
2023/10/13 04:24:08;;;;;;;3.78;1.80;;;;;;;;;;6179690;28;20041;-87
2023/10/13 04:30:19;;;;;;;2.40;1.60;;;;;;;;;;6176407;28;20031;-87
2023/10/13 04:39:38;;;;;;;1.83;1.60;;;;;;;;;;6179606;28;20061;-87
2023/10/13 04:42:53;;;;;;;2.10;1.60;;;;;;;;;;6175371;28;20033;-87
2023/10/13 04:45:58;;;;;;;3.28;1.60;;;;;;;;;;6162088;28;20051;-87
2023/10/13 04:49:02;;;;;;;2.70;1.70;;;;;;;;;;6175075;28;20471;-87
2023/10/13 05:44:37;;;;;;;3.67;1.90;;;;;;;;;;6185811;28;20039;-82
2023/10/13 06:30:45;;;;;;;2.17;1.42;;;;;;;;;;6186968;28;20026;-84
2023/10/13 06:33:47;;;;;;;2.20;1.65;;;;;;;;;;6180237;28;20026;-84
2023/10/13 06:36:47;;;;;;;;;;;;;;;;;;6205071;28;20030;-85
2023/10/13 06:39:51;;;;;;;1.98;1.33;;;;;;;;;;6183379;28;19910;-84
2023/10/13 06:42:55;;;;;;;1.98;1.67;;;;;;;;;;6173157;28;20087;-83
2023/10/13 06:46:01;;;;;;;3.35;1.67;;;;;;;;;;6198280;28;20116;-87
2023/10/13 06:49:02;;;;;;;1.92;1.50;;;;;;;;;;6207877;28;20119;-89
2023/10/13 06:52:06;;;;;;;2.13;1.52;;;;;;;;;;6182679;28;20027;-83
2023/10/13 06:55:06;;;;;;;2.80;1.83;;;;;;;;;;6201460;28;20576;-84
2023/10/13 06:58:06;;;;;;;3.10;1.70;;;;;;;;;;6185290;28;20030;-83
2023/10/13 07:01:07;;;;;;;5.23;1.80;;;;;;;;;;6176620;28;20027;-85
2023/10/13 07:04:13;;;;;;;2.95;1.50;;;;;;;;;;6171143;28;20381;-84
2023/10/13 07:07:15;;;;;;;2.85;1.75;;;;;;;;;;6158135;28;20125;-84
2023/10/13 07:10:16;;;;;;;1.65;1.42;;;;;;;;;;6180937;28;20413;-84
2023/10/13 07:13:17;;;;;;;3.65;1.88;;;;;;;;;;6177222;28;20034;-84
2023/10/13 07:16:18;;;;;;;2.35;1.63;;;;;;;;;;6161874;28;20079;-84
2023/10/13 07:19:18;;;;;;;2.25;1.70;;;;;;;;;;6180455;28;20058;-85
2023/10/13 07:22:19;;;;;;;2.67;1.67;;;;;;;;;;6176165;28;20061;-83
2023/10/13 07:25:23;;;;;;;2.10;1.70;;;;;;;;;;6178704;28;20329;-84
2023/10/13 07:28:24;;;;;;;2.75;1.58;;;;;;;;;;6170620;28;20138;-84
2023/10/13 07:31:27;;;;;;;2.70;2.13;;;;;;;;;;6173704;28;20386;-83
2023/10/13 07:34:31;;;;;;;3.78;3.17;;;;;;;;;;6179704;28;20286;-83
2023/10/13 07:37:32;;;;;;;3.90;2.70;;;;;;;;;;6171559;28;20034;-80
2023/10/13 07:43:39;;;;;;;2.88;1.95;;;;;;;;;;6178444;28;20096;-83
2023/10/13 07:46:39;;;;;;;2.28;1.90;;;;;;;;;;6181200;28;20094;-84
2023/10/13 07:49:39;;;;;;;;;;;;;;;;;;6178903;28;20038;-82
2023/10/13 07:52:58;;;;;;;1.95;1.33;;;;;;;;;;6180105;28;19918;-82
2023/10/13 07:56:04;;;;;;;3.83;1.90;;;;;;;;;;6189119;28;20033;-81
2023/10/13 07:59:09;;;;;;;2.00;1.60;;;;;;;;;;6170988;28;20600;-85
2023/10/13 08:02:12;;;;;;;3.15;1.70;;;;;;;;;;6184208;28;20030;-82
2023/10/13 08:05:14;;;;;;;3.45;1.50;;;;;;;;;;6164182;28;20081;-81
2023/10/13 08:08:15;;;;;;;2.28;1.60;;;;;;;;;;6179753;28;20037;-80
2023/10/13 08:11:24;;;;;;;;;;;;;;;;;;6180887;28;20022;-83
2023/10/13 08:14:29;;;;;;;1.77;1.15;;;;;;;;;;6178216;28;21444;-82
2023/10/13 08:17:31;;;;;;;1.70;1.17;;;;;;;;;;6177204;28;20022;-86
2023/10/13 08:20:38;;;;;;;2.03;1.47;;;;;;;;;;5835818;27;10001274;-89
2023/10/13 08:30:30;;;;;;;3.50;1.50;;;;;;;;;;6176740;28;20039;-84
2023/10/13 08:33:32;;;;;;;2.58;1.63;;;;;;;;;;6174459;28;20045;-83
2023/10/13 08:36:38;;;;;;;1.98;1.30;;;;;;;;;;6161217;28;20064;-85
2023/10/13 08:46:08;;;;;;;1.40;1.27;;;;;;;;;;6180677;28;20046;-87
2023/10/13 08:49:17;;;;;;;3.25;1.63;;;;;;;;;;6168373;28;20029;-85
2023/10/13 08:55:48;;;;;;;2.95;2.35;;;;;;;;;;6170383;28;20043;-87
2023/10/13 09:02:15;;;;;;;4.50;2.47;;;;;;;;;;5837268;28;10000509;-87
2023/10/13 09:08:35;;;;;;;2.88;1.83;;;;;;;;;;6178766;28;20030;-85
2023/10/13 09:11:48;;;;;;;3.38;2.00;;;;;;;;;;6176798;28;20049;-84
2023/10/13 09:18:42;;;;;;;4.38;1.98;;;;;;;;;;6168284;28;20552;-85
2023/10/13 09:24:47;;;;;;;3.58;2.00;;;;;;;;;;6181605;28;20137;-85
2023/10/13 09:27:53;;;;;;;2.45;1.77;;;;;;;;;;6179604;28;20030;-85
2023/10/13 09:30:58;;;;;;;4.25;1.55;;;;;;;;;;6176901;28;20018;-85
2023/10/13 09:33:58;;;;;;;2.40;1.70;;;;;;;;;;6183724;28;20029;-86
2023/10/13 09:37:03;;;;;;;2.67;1.80;;;;;;;;;;6180881;28;20427;-89
2023/10/13 09:40:24;;;;;;;3.13;1.33;;;;;;;;;;6163931;28;20040;-87
2023/10/13 09:43:26;;;;;;;3.40;1.35;;;;;;;;;;6181529;28;20039;-86
2023/10/13 09:46:28;;;;;;;2.15;1.77;;;;;;;;;;6180967;28;20026;-87
2023/10/13 09:49:44;;;;;;;1.83;1.60;;;;;;;;;;6182447;28;20091;-86
2023/10/13 09:52:45;;;;;;;2.10;1.60;;;;;;;;;;6190935;28;20030;-84
2023/10/13 09:55:54;;;;;;;2.53;1.73;;;;;;;;;;6172430;28;20029;-83
2023/10/13 09:59:09;;;;;;;4.60;1.52;;;;;;;;;;6184304;28;20025;-84
2023/10/13 10:02:09;;;;;;;2.17;1.38;;;;;;;;;;6186471;28;20033;-84
2023/10/13 10:05:21;;;;;;;3.83;1.40;;;;;;;;;;6167896;28;20038;-86
2023/10/13 10:08:32;;;;;;;2.25;1.55;;;;;;;;;;6180360;28;20027;-84
2023/10/13 10:11:55;;;;;;;3.30;1.75;;;;;;;;;;6187330;28;20022;-83
2023/10/13 10:14:56;;;;;;;1.73;1.40;;;;;;;;;;6139414;28;20052;-86
2023/10/13 10:17:56;;;;;;;1.98;1.60;;;;;;;;;;6190165;28;20105;-87
2023/10/13 10:21:07;;;;;;;3.20;1.60;;;;;;;;;;6177450;28;20047;-86
2023/10/13 10:24:14;;;;;;;4.72;1.63;;;;;;;;;;6168542;28;20097;-85
2023/10/13 10:27:23;;;;;;;1.77;1.50;;;;;;;;;;6178495;28;20038;-85
2023/10/13 10:30:28;;;;;;;4.55;1.50;;;;;;;;;;6177617;28;20031;-86
2023/10/13 10:33:33;;;;;;;3.50;1.50;;;;;;;;;;6179215;28;20057;-87
2023/10/13 10:36:33;;;;;;;2.53;1.20;;;;;;;;;;6182584;28;20026;-86
2023/10/13 10:39:44;;;;;;;4.00;1.52;;;;;;;;;;6172264;28;20042;-86
2023/10/13 10:42:50;;;;;;;2.40;1.67;;;;;;;;;;6182407;28;20071;-86
2023/10/13 10:45:50;;;;;;;2.15;1.23;;;;;;;;;;6180880;28;20030;-87
2023/10/13 10:48:56;;;;;;;1.75;1.60;;;;;;;;;;6178838;28;20049;-88
2023/10/13 10:52:00;;;;;;;3.90;1.77;;;;;;;;;;6176210;28;20443;-89
2023/10/13 10:55:00;;;;;;;3.13;1.80;;;;;;;;;;6182901;28;20027;-87
2023/10/13 10:58:01;;;;;;;2.30;1.60;;;;;;;;;;6183727;28;20038;-86
2023/10/13 11:01:10;;;;;;;5.05;1.92;;;;;;;;;;6162415;28;20049;-86
2023/10/13 11:07:23;;;;;;;4.90;1.80;;;;;;;;;;6171725;28;20030;-88
2023/10/13 11:10:27;;;;;;;4.32;1.70;;;;;;;;;;6168346;28;20027;-86
2023/10/13 11:13:31;;;;;;;2.72;1.60;;;;;;;;;;6172542;28;20065;-86
2023/10/13 11:16:34;;;;;;;3.30;1.13;;;;;;;;;;6179254;28;20072;-87
2023/10/13 11:19:34;;;;;;;2.33;1.30;;;;;;;;;;6177133;28;20564;-86
2023/10/13 11:22:41;;;;;;;3.13;1.20;;;;;;;;;;6174364;28;20059;-86
2023/10/13 11:25:44;;;;;;;4.47;1.27;;;;;;;;;;6175032;28;20039;-86
2023/10/13 11:28:51;;;;;;;2.95;1.38;;;;;;;;;;6173516;28;20050;-90
2023/10/13 11:31:58;;;;;;;2.55;1.38;;;;;;;;;;6177157;28;20126;-88
2023/10/13 11:34:58;;;;;;;2.10;1.27;;;;;;;;;;6176932;28;20084;-85
2023/10/13 11:38:13;;;;;;;2.53;1.60;;;;;;;;;;6178181;28;20035;-74
2023/10/13 11:44:43;;;;;;;1.75;1.40;;;;;;;;;;6178193;28;20042;-85
2023/10/13 11:47:58;;;;;;;1.85;1.17;;;;;;;;;;6180216;28;20076;-85
2023/10/13 11:51:47;;;;;;;4.97;1.70;;;;;;;;;;6177901;28;20037;-86
2023/10/13 11:54:23;;;;;;;1.92;1.67;;;;;;;;;;6179386;28;20030;-84
2023/10/13 11:57:24;;;;;;;3.75;1.45;;;;;;;;;;6178519;28;20153;-87
2023/10/13 12:07:14;;;;;;;2.15;1.20;;;;;;;;;;6179112;28;20035;-85
2023/10/13 12:13:39;;;;;;;2.10;1.20;;;;;;;;;;6181575;28;20034;-86
2023/10/13 12:16:42;;;;;;;3.05;1.30;;;;;;;;;;6177197;28;20774;-85
2023/10/13 12:19:43;;;;;;;2.50;1.23;;;;;;;;;;6181225;28;20030;-85
2023/10/13 12:22:43;;;;;;;1.67;1.30;;;;;;;;;;6178560;28;20057;-89
2023/10/13 12:26:06;;;;;;;2.55;1.58;;;;;;;;;;6175966;28;20038;-85
2023/10/13 12:29:06;;;;;;;2.38;1.20;;;;;;;;;;6178757;28;20387;-85
2023/10/13 12:32:12;;;;;;;2.33;1.40;;;;;;;;;;6163929;28;20042;-76
2023/10/13 12:51:52;;;;;;;3.88;1.40;;;;;;;;;;6180187;28;20026;-77
2023/10/13 12:57:56;;;;;;;1.48;1.30;;;;;;;;;;6176724;28;20536;-79
2023/10/13 13:01:06;;;;;;;3.05;1.63;;;;;;;;;;6174891;28;20119;-77
2023/10/13 13:04:11;;;;;;;5.38;1.55;;;;;;;;;;6171052;28;20121;-77
2023/10/13 13:07:14;;;;;;;3.10;1.63;;;;;;;;;;6198102;28;20106;-77
2023/10/13 13:10:15;;;;;;;3.13;1.58;;;;;;;;;;6171088;28;20463;-77
2023/10/13 13:13:16;;;;;;;3.55;1.50;;;;;;;;;;6200318;28;20030;-77
2023/10/13 13:16:30;;;;;;;4.47;1.50;;;;;;;;;;6186424;28;20057;-77
2023/10/13 13:19:39;;;;;;;2.72;1.45;;;;;;;;;;6184213;28;20088;-77
2023/10/13 13:22:39;;;;;;;2.70;1.60;;;;;;;;;;6172994;28;20043;-77
2023/10/13 13:25:42;;;;;;;3.33;1.83;;;;;;;;;;6182856;28;20039;-76
2023/10/13 13:28:42;;;;;;;1.80;1.45;;;;;;;;;;6160392;28;20635;-77
2023/10/13 13:31:46;;;;;;;3.60;1.58;;;;;;;;;;6185818;28;20039;-78
2023/10/13 13:35:04;;;;;;;;;;;;;;;;;;;;;
2023/10/13 13:38:16;;;;;;;1.63;1.40;;;;;;;;;;6193602;28;20106;-77
2023/10/13 13:41:17;;;;;;;2.10;1.48;;;;;;;;;;6191823;28;20030;-77
2023/10/13 13:44:17;;;;;;;1.60;1.35;;;;;;;;;;6173354;28;20096;-78
2023/10/13 13:47:18;;;;;;;3.23;1.30;;;;;;;;;;6176262;28;20483;-78
2023/10/13 13:50:23;;;;;;;2.07;1.33;;;;;;;;;;6173025;28;20113;-77
2023/10/13 13:53:31;;;;;;;2.35;1.55;;;;;;;;;;6176974;28;20031;-78
2023/10/13 13:56:38;;;;;;;3.33;1.50;;;;;;;;;;6174371;28;20420;-76
2023/10/13 13:59:38;;;;;;;2.42;1.60;;;;;;;;;;6179936;28;20368;-75
2023/10/13 14:02:38;;;;;;;1.60;1.30;;;;;;;;;;6184387;28;20023;-75
2023/10/13 14:05:42;;;;;;;2.77;1.43;;;;;;;;;;6186192;28;20300;-76
2023/10/13 14:08:44;;;;;;;3.05;1.52;;;;;;;;;;6180334;28;20061;-76
2023/10/13 14:15:03;;;;;;;5.47;1.63;;;;;;;;;;6190792;28;20502;-74
2023/10/13 14:18:05;;;;;;;3.97;1.65;;;;;;;;;;6211702;28;20036;-75
2023/10/13 14:21:06;;;;;;;2.33;1.45;;;;;;;;;;6191276;28;20047;-77
2023/10/13 14:24:14;;;;;;;3.03;1.83;;;;;;;;;;6176374;28;20042;-76
2023/10/13 14:27:18;;;;;;;2.67;1.42;;;;;;;;;;6180782;28;20062;-75
2023/10/13 14:30:23;;;;;;;3.22;1.58;;;;;;;;;;6181937;28;20026;-75
2023/10/13 14:33:25;;;;;;;3.15;1.73;;;;;;;;;;6181989;28;20054;-75
2023/10/13 14:36:28;;;;;;;3.35;1.63;;;;;;;;;;6177057;28;20026;-75
2023/10/13 14:39:29;;;;;;;3.90;1.70;;;;;;;;;;6177898;28;20504;-75
2023/10/13 14:42:35;;;;;;;1.80;1.40;;;;;;;;;;6181925;28;20035;-75
2023/10/13 14:45:35;;;;;;;4.78;2.17;;;;;;;;;;6191969;28;20039;-75
2023/10/13 14:48:38;;;;;;;2.42;1.60;;;;;;;;;;6186360;28;20375;-75
2023/10/13 14:51:39;;;;;;;2.38;1.42;;;;;;;;;;6178798;28;20027;-75
2023/10/13 14:54:40;;;;;;;1.85;1.48;;;;;;;;;;6181635;28;20022;-75
2023/10/13 14:57:41;;;;;;;3.90;1.48;;;;;;;;;;6179514;28;20117;-75
2023/10/13 15:00:45;;;;;;;2.45;1.48;;;;;;;;;;6180220;28;20440;-75
2023/10/13 15:03:48;;;;;;;2.63;1.60;;;;;;;;;;6178146;28;20038;-74
2023/10/13 15:06:50;;;;;;;3.13;1.50;;;;;;;;;;6180430;28;20391;-75
2023/10/13 15:09:50;;;;;;;2.20;1.63;;;;;;;;;;6178470;28;20027;-74
2023/10/13 15:12:50;;;;;;;2.63;1.50;;;;;;;;;;6177087;28;20117;-74
2023/10/13 15:15:50;;;;;;;4.57;1.67;;;;;;;;;;6186377;28;20033;-74
2023/10/13 15:18:52;;;;;;;3.10;1.60;;;;;;;;;;6177309;28;20041;-74
2023/10/13 15:21:52;;;;;;;2.65;1.77;;;;;;;;;;6179621;28;20424;-74
2023/10/13 15:28:13;;;;;;;2.83;1.80;;;;;;;;;;6180667;28;20066;-74
2023/10/13 15:31:37;;;;;;;3.00;1.60;;;;;;;;;;6178900;28;20018;-74
2023/10/13 15:34:39;;;;;;;3.15;1.58;;;;;;;;;;6164123;28;20031;-74
2023/10/13 15:37:41;;;;;;;3.30;1.48;;;;;;;;;;6176389;28;20030;-74
2023/10/13 15:40:42;;;;;;;2.25;1.85;;;;;;;;;;6176909;28;20030;-74
2023/10/13 15:43:49;;;;;;;3.53;1.75;;;;;;;;;;6181829;28;20046;-73
2023/10/13 15:46:52;;;;;;;3.28;1.80;;;;;;;;;;6176052;28;20156;-73
2023/10/13 15:49:53;;;;;;;4.65;1.35;;;;;;;;;;6182085;28;20475;-74
2023/10/13 15:52:53;;;;;;;3.05;1.70;;;;;;;;;;6179830;28;20061;-74
2023/10/13 15:55:53;;;;;;;3.40;1.47;;;;;;;;;;6179001;28;20030;-74
2023/10/13 15:58:55;;;;;;;3.45;1.83;;;;;;;;;;6188023;28;20022;-74
2023/10/13 16:01:57;;;;;;;2.33;1.67;;;;;;;;;;6206768;28;20055;-74
2023/10/13 16:04:59;;;;;;;2.53;1.70;;;;;;;;;;6182068;28;20070;-74
2023/10/13 16:08:00;;;;;;;2.45;1.58;;;;;;;;;;6180246;28;20038;-74
2023/10/13 16:11:07;;;;;;;2.55;1.52;;;;;;;;;;6178589;28;20076;-74
2023/10/13 16:14:10;;;;;;;1.80;1.45;;;;;;;;;;6179111;28;20483;-74
2023/10/13 16:17:10;;;;;;;3.45;1.70;;;;;;;;;;6180877;28;20041;-74
2023/10/13 16:20:16;;;;;;;3.78;1.60;;;;;;;;;;6178718;28;20387;-74
2023/10/13 16:23:17;;;;;;;3.47;1.65;;;;;;;;;;6177147;28;20076;-74
2023/10/13 16:26:21;;;;;;;4.47;1.57;;;;;;;;;;6176960;28;20047;-74
2023/10/13 16:29:22;;;;;;;4.32;1.90;;;;;;;;;;6176118;28;20046;-73
2023/10/13 16:32:23;;;;;;;3.90;1.52;;;;;;;;;;6182589;28;20030;-74
2023/10/13 16:35:23;;;;;;;3.80;1.70;;;;;;;;;;6179891;28;20026;-73
2023/10/13 16:38:24;;;;;;;4.00;1.92;;;;;;;;;;6154854;28;20035;-74
2023/10/13 16:41:26;;;;;;;4.18;2.38;;;;;;;;;;6174997;28;20114;-74
2023/10/13 16:44:27;;;;;;;2.80;1.80;;;;;;;;;;6177072;28;20057;-74
2023/10/13 16:47:28;;;;;;;4.40;2.25;;;;;;;;;;6173616;28;20110;-73
2023/10/13 16:50:29;;;;;;;3.38;2.30;;;;;;;;;;6172680;28;20027;-73
2023/10/13 16:53:29;;;;;;;2.30;2.10;;;;;;;;;;6171046;28;20425;-73
2023/10/13 16:56:29;;;;;;;4.40;1.77;;;;;;;;;;6178224;28;20285;-73
2023/10/13 16:59:29;;;;;;;2.45;1.70;;;;;;;;;;6179487;28;20023;-73
2023/10/13 17:02:30;;;;;;;3.28;2.20;;;;;;;;;;6180355;28;20031;-74
2023/10/13 17:05:30;;;;;;;3.65;2.28;;;;;;;;;;6177091;28;20035;-75
2023/10/13 17:08:31;;;;;;;3.97;2.03;;;;;;;;;;6165244;28;20129;-74
2023/10/13 17:11:31;;;;;;;3.78;2.13;;;;;;;;;;6193307;28;20030;-74
2023/10/13 17:14:33;;;;;;;2.47;1.97;;;;;;;;;;6173676;28;20495;-77
2023/10/13 17:17:34;;;;;;;4.43;2.33;;;;;;;;;;6175534;28;20274;-74
2023/10/13 17:20:35;;;;;;;4.53;2.33;;;;;;;;;;6173377;28;20067;-74
2023/10/13 17:23:35;;;;;;;2.72;2.10;;;;;;;;;;6164985;28;20047;-74
2023/10/13 17:26:35;;;;;;;2.83;2.10;;;;;;;;;;6173712;28;20544;-66
2023/10/13 17:29:36;;;;;;;3.50;2.43;;;;;;;;;;6177268;28;20034;-76
2023/10/13 17:32:36;;;;;;;5.07;2.50;;;;;;;;;;6184703;28;20084;-67
2023/10/13 17:35:40;;;;;;;4.15;2.40;;;;;;;;;;6185725;28;20058;-70
2023/10/13 17:38:40;;;;;;;3.40;2.55;;;;;;;;;;6180220;28;20023;-68
2023/10/13 17:41:40;;;;;;;9.45;6.35;;;;;;;;;;6192712;28;20421;-69
2023/10/13 17:44:41;;;;;;;34.97;22.53;;;;;;;;;;6213399;28;20049;-70
2023/10/13 17:47:42;;;;;;;27.53;21.23;;;;;;;;;;6186768;28;20034;-78
2023/10/13 17:50:43;;;;;;;16.35;14.05;;;;;;;;;;6212361;28;20018;-76
2023/10/13 17:53:45;;;;;;;13.15;9.75;;;;;;;;;;6181061;28;20033;-84
2023/10/13 17:56:46;;;;;;;10.07;6.03;;;;;;;;;;6204830;28;20497;-80
2023/10/13 17:59:53;;;;;;;9.53;4.60;;;;;;;;;;6205343;28;20132;-83
2023/10/13 18:02:54;;;;;;;4.90;3.75;;;;;;;;;;6199680;28;20036;-81
2023/10/13 18:06:01;;;;;;;5.15;3.20;;;;;;;;;;6192919;28;20037;-78
2023/10/13 18:09:02;;;;;;;5.15;3.10;;;;;;;;;;6158772;28;20049;-84
2023/10/13 18:12:04;;;;;;;4.65;2.88;;;;;;;;;;6191884;28;20117;-81
2023/10/13 18:15:13;;;;;;;5.03;2.70;;;;;;;;;;6194191;28;20014;-82
2023/10/13 18:18:20;;;;;;;4.70;2.85;;;;;;;;;;6195376;28;20019;-81
2023/10/13 18:21:21;;;;;;;4.95;2.80;;;;;;;;;;6204625;28;20034;-77
2023/10/13 18:24:22;;;;;;;7.72;2.53;;;;;;;;;;6197614;28;20101;-78
2023/10/13 18:27:22;;;;;;;5.53;2.88;;;;;;;;;;6183321;28;20782;-78
2023/10/13 18:30:22;;;;;;;3.63;2.65;;;;;;;;;;6202146;28;20034;-78
2023/10/13 18:33:23;;;;;;;4.30;2.67;;;;;;;;;;6208199;28;20026;-83
2023/10/13 18:36:24;;;;;;;5.50;3.63;;;;;;;;;;6184683;28;20168;-84
2023/10/13 18:39:34;;;;;;;6.10;3.25;;;;;;;;;;6172923;28;20034;-82
2023/10/13 18:42:41;;;;;;;4.65;2.70;;;;;;;;;;6189687;28;20035;-82
2023/10/13 18:45:43;;;;;;;4.53;2.55;;;;;;;;;;6201924;28;20122;-83
2023/10/13 18:48:44;;;;;;;3.80;2.67;;;;;;;;;;6174959;28;20309;-84
2023/10/13 18:51:48;;;;;;;3.00;2.65;;;;;;;;;;6194012;28;20058;-82
2023/10/13 18:54:48;;;;;;;4.13;2.58;;;;;;;;;;6193640;28;20034;-82
2023/10/13 18:57:48;;;;;;;3.70;2.63;;;;;;;;;;6180579;28;20065;-82
2023/10/13 19:00:49;;;;;;;4.03;3.13;;;;;;;;;;5841951;27;9999915;-82
2023/10/13 19:03:54;;;;;;;6.22;2.95;;;;;;;;;;6185723;28;20461;-83
2023/10/13 19:06:54;;;;;;;5.18;3.13;;;;;;;;;;6191576;28;20043;-83
2023/10/13 19:09:54;;;;;;;3.73;3.03;;;;;;;;;;6213440;28;20114;-83
2023/10/13 19:13:00;;;;;;;5.37;2.90;;;;;;;;;;6203062;28;20288;-83
2023/10/13 19:16:07;;;;;;;5.03;3.10;;;;;;;;;;6235462;28;20487;-82
2023/10/13 19:19:07;;;;;;;5.20;2.65;;;;;;;;;;6164840;28;20023;-83
2023/10/13 19:22:12;;;;;;;4.60;2.40;;;;;;;;;;6184614;28;20065;-83
2023/10/13 19:25:16;;;;;;;3.13;2.35;;;;;;;;;;6160217;28;20289;-82
2023/10/13 19:28:16;;;;;;;5.25;2.35;;;;;;;;;;6193251;28;20029;-83
2023/10/13 19:31:18;;;;;;;5.32;2.83;;;;;;;;;;6176683;28;20042;-82
2023/10/13 19:34:19;;;;;;;3.30;2.50;;;;;;;;;;6189191;28;20030;-82
2023/10/13 19:37:19;;;;;;;4.43;2.42;;;;;;;;;;6175010;28;20106;-83
2023/10/13 19:40:19;;;;;;;5.80;2.50;;;;;;;;;;6194013;28;20026;-84
2023/10/13 19:43:20;;;;;;;;;;;;;;;;;;6192760;28;20627;-83
2023/10/13 19:46:20;;;;;;;3.67;1.97;;;;;;;;;;6185760;28;19918;-83
2023/10/13 19:49:25;;;;;;;3.67;2.20;;;;;;;;;;6196559;28;20418;-82
2023/10/13 19:52:25;;;;;;;2.63;2.17;;;;;;;;;;6192342;28;20089;-82
2023/10/13 19:55:25;;;;;;;3.28;2.35;;;;;;;;;;6159280;28;20031;-82
2023/10/13 19:58:26;;;;;;;3.13;2.17;;;;;;;;;;6186594;28;20026;-83
2023/10/13 20:01:26;;;;;;;;;;;;;;;;;;6193839;28;20057;-82
2023/10/13 20:04:26;;;;;;;4.22;2.33;;;;;;;;;;6173389;28;19918;-83
2023/10/13 20:07:27;;;;;;;;;;;;;;;;;;6170955;28;20066;-83
2023/10/13 20:10:27;;;;;;;3.70;1.80;;;;;;;;;;6179284;28;20370;-83
2023/10/13 20:13:27;;;;;;;;;;;;;;;;;;6169327;28;20467;-83
2023/10/13 20:16:29;;;;;;;3.03;1.85;;;;;;;;;;6196444;28;19936;-82
2023/10/13 20:19:29;;;;;;;3.28;1.98;;;;;;;;;;6185572;28;20364;-83
2023/10/13 20:22:30;;;;;;;;;;;;;;;;;;6189176;28;20175;-83
2023/10/13 20:25:30;;;;;;;5.75;2.10;;;;;;;;;;6200796;28;19967;-83
2023/10/13 20:28:30;;;;;;;;;;;;;;;;;;6189363;28;20525;-82
2023/10/13 20:31:35;;;;;;;2.17;1.60;;;;;;;;;;6188316;28;19916;-82
2023/10/13 20:34:36;;;;;;;3.47;2.03;;;;;;;;;;6190005;28;20111;-83
2023/10/13 20:37:39;;;;;;;;;;;;;;;;;;6184794;28;20030;-82
2023/10/13 20:40:40;;;;;;;3.42;1.90;;;;;;;;;;6157465;28;20349;-83
2023/10/13 20:43:40;;;;;;;;;;;;;;;;;;6179269;28;20058;-71
2023/10/13 20:46:40;;;;;;;3.08;1.92;;;;;;;;;;6189373;28;19928;-71
2023/10/13 20:49:43;;;;;;;;;;;;;;;;;;6193030;28;20026;-71
2023/10/13 20:52:43;;;;;;;4.88;1.80;;;;;;;;;;6191862;28;20013;-71
2023/10/13 20:55:43;;;;;;;;;;;;;;;;;;6176139;28;20554;-71
2023/10/13 20:58:46;;;;;;;3.20;1.80;;;;;;;;;;6182693;28;19918;-71
2023/10/13 21:01:47;;;;;;;4.22;2.38;;;;;;;;;;6173589;28;20277;-72
2023/10/13 23:37:42;;;;;;;4.15;2.42;;;;;;;;;;3696407;28;20130;-71
2023/10/13 23:40:46;;;;;;;3.17;2.72;;;;;;;;;;6216238;28;20046;-71
2023/10/13 23:43:48;;;;;;;2.72;2.47;;;;;;;;;;6217585;28;20032;-71
2023/10/13 23:46:48;;;;;;;3.60;2.35;;;;;;;;;;6215138;28;20029;-71
2023/10/13 23:49:50;;;;;;;4.38;2.58;;;;;;;;;;6217751;28;20033;-71
2023/10/13 23:52:55;;;;;;;5.25;2.47;;;;;;;;;;6187532;28;20045;-71
2023/10/13 23:56:00;;;;;;;4.60;2.88;;;;;;;;;;6199222;28;20386;-71
2023/10/13 23:59:05;;;;;;;4.88;2.65;;;;;;;;;;6201053;28;20480;-71
